Slavgorod, Russia
Current Conditions -  °F | °C
As of 6:00 AM on Thursday 18 Dec 2014 (Local Time) from UASP Reporting Station
Overcast Overcast  
Wind Chill:   Ceiling: 500
Heat Index: 16°   Visibility: 4mi
Dew Point: 12°   Wind: 4mph
Humidity: 86%   Direction: 110°ESE
Pressure: 30.56"   Gusts: NA
Location:  53°N, 78.67°E
Report Text: UASP 172300Z 11002MPS 6000 OVC005 M09/M11 Q1035 R21/490250TEMPO 1000 BR OVC002 RMK QBB160 QFE765/1020
Loading
Personal Weather Stations






























Interactive Weather Map New forecast layout! Learn more

10-Day Weather Forecast

Advertisements
Track Severe Weather on mobile